Wellborn, Florida
Current Conditions -  °F | °C
As of 11:55 AM on Monday 22 Dec 2014 (Local Time) from K24J Reporting Station
Overcast Overcast  
Wind Chill: 63°   Ceiling: 100
Heat Index: 63°   Visibility: 0.5mi
Dew Point: 63°   Wind: 5mph
Humidity: 100%   Direction: 60°ENE
Pressure: 29.97"   Gusts: NA
Location:  30.23°N, 82.82°W
Report Text: K24J 221655Z AUTO 06004KT 1/2SM OVC001 17/17 A2997 RMK AO1 LTG DSNT E AND SW AND W
Loading
Personal Weather Stations






























Interactive Weather Map New forecast layout! Learn more

10-Day Weather Forecast

Advertisements
Track Severe Weather on mobile